sensor_id;sensor_type;location;lat;lon;timestamp;temperature;humidity
38183;DHT22;23991;52.430;10.586;2022-07-24T00:01:59;17.80;57.70
38183;DHT22;23991;52.430;10.586;2022-07-24T00:04:25;17.80;57.70
38183;DHT22;23991;52.430;10.586;2022-07-24T00:06:51;17.80;58.00
38183;DHT22;23991;52.430;10.586;2022-07-24T00:09:16;17.70;58.00
38183;DHT22;23991;52.430;10.586;2022-07-24T00:11:43;17.70;58.00
38183;DHT22;23991;52.430;10.586;2022-07-24T00:14:09;17.60;58.30
38183;DHT22;23991;52.430;10.586;2022-07-24T00:16:34;17.50;58.50
38183;DHT22;23991;52.430;10.586;2022-07-24T00:19:00;17.50;58.40
38183;DHT22;23991;52.430;10.586;2022-07-24T00:21:26;17.50;58.50
38183;DHT22;23991;52.430;10.586;2022-07-24T00:23:52;17.40;58.90
38183;DHT22;23991;52.430;10.586;2022-07-24T00:26:18;17.30;58.90
38183;DHT22;23991;52.430;10.586;2022-07-24T00:28:43;17.30;59.00
38183;DHT22;23991;52.430;10.586;2022-07-24T00:31:09;17.30;59.10
38183;DHT22;23991;52.430;10.586;2022-07-24T00:33:35;17.30;59.30
38183;DHT22;23991;52.430;10.586;2022-07-24T00:36:01;17.20;59.40
38183;DHT22;23991;52.430;10.586;2022-07-24T00:38:26;17.20;59.70
38183;DHT22;23991;52.430;10.586;2022-07-24T00:40:52;17.10;59.60
38183;DHT22;23991;52.430;10.586;2022-07-24T00:43:18;17.10;59.80
38183;DHT22;23991;52.430;10.586;2022-07-24T00:45:44;17.10;59.80
38183;DHT22;23991;52.430;10.586;2022-07-24T00:48:09;17.00;60.10
38183;DHT22;23991;52.430;10.586;2022-07-24T00:50:37;17.00;60.70
38183;DHT22;23991;52.430;10.586;2022-07-24T00:53:03;17.00;60.70
38183;DHT22;23991;52.430;10.586;2022-07-24T00:55:29;17.00;60.70
38183;DHT22;23991;52.430;10.586;2022-07-24T00:57:56;16.90;61.00
38183;DHT22;23991;52.430;10.586;2022-07-24T01:00:22;16.90;61.30
38183;DHT22;23991;52.430;10.586;2022-07-24T01:02:49;16.80;61.50
38183;DHT22;23991;52.430;10.586;2022-07-24T01:05:15;16.80;61.60
38183;DHT22;23991;52.430;10.586;2022-07-24T01:07:41;16.80;61.40
38183;DHT22;23991;52.430;10.586;2022-07-24T01:10:08;16.70;61.50
38183;DHT22;23991;52.430;10.586;2022-07-24T01:12:35;16.70;61.80
38183;DHT22;23991;52.430;10.586;2022-07-24T01:15:02;16.70;61.60
38183;DHT22;23991;52.430;10.586;2022-07-24T01:17:32;16.60;61.60
38183;DHT22;23991;52.430;10.586;2022-07-24T01:19:59;16.50;61.80
38183;DHT22;23991;52.430;10.586;2022-07-24T01:22:25;16.50;61.80
38183;DHT22;23991;52.430;10.586;2022-07-24T01:24:51;16.50;61.90
38183;DHT22;23991;52.430;10.586;2022-07-24T01:27:17;16.50;62.00
38183;DHT22;23991;52.430;10.586;2022-07-24T01:29:43;16.50;61.90
38183;DHT22;23991;52.430;10.586;2022-07-24T01:32:09;16.40;62.00
38183;DHT22;23991;52.430;10.586;2022-07-24T01:34:35;16.30;62.10
38183;DHT22;23991;52.430;10.586;2022-07-24T01:37:00;16.30;62.50
38183;DHT22;23991;52.430;10.586;2022-07-24T01:39:26;16.20;62.30
38183;DHT22;23991;52.430;10.586;2022-07-24T01:41:51;16.30;62.70
38183;DHT22;23991;52.430;10.586;2022-07-24T01:44:17;16.20;62.80
38183;DHT22;23991;52.430;10.586;2022-07-24T01:46:43;16.20;62.60
38183;DHT22;23991;52.430;10.586;2022-07-24T01:49:09;16.20;63.00
38183;DHT22;23991;52.430;10.586;2022-07-24T01:51:34;16.10;63.10
38183;DHT22;23991;52.430;10.586;2022-07-24T01:54:00;16.10;63.40
38183;DHT22;23991;52.430;10.586;2022-07-24T01:56:31;16.10;63.60
38183;DHT22;23991;52.430;10.586;2022-07-24T01:58:57;16.10;63.70
38183;DHT22;23991;52.430;10.586;2022-07-24T02:01:23;16.10;63.90
38183;DHT22;23991;52.430;10.586;2022-07-24T02:03:48;16.00;64.10
38183;DHT22;23991;52.430;10.586;2022-07-24T02:06:15;16.00;64.40
38183;DHT22;23991;52.430;10.586;2022-07-24T02:08:40;16.00;64.40
38183;DHT22;23991;52.430;10.586;2022-07-24T02:11:06;15.90;64.60
38183;DHT22;23991;52.430;10.586;2022-07-24T02:13:32;15.90;64.70
38183;DHT22;23991;52.430;10.586;2022-07-24T02:15:57;15.80;64.80
38183;DHT22;23991;52.430;10.586;2022-07-24T02:18:23;15.80;64.30
38183;DHT22;23991;52.430;10.586;2022-07-24T02:20:49;15.80;64.20
38183;DHT22;23991;52.430;10.586;2022-07-24T02:23:15;15.80;64.60
38183;DHT22;23991;52.430;10.586;2022-07-24T02:25:46;15.70;64.90
38183;DHT22;23991;52.430;10.586;2022-07-24T02:28:12;15.70;64.80
38183;DHT22;23991;52.430;10.586;2022-07-24T02:30:38;15.60;64.90
38183;DHT22;23991;52.430;10.586;2022-07-24T02:33:03;15.60;65.20
38183;DHT22;23991;52.430;10.586;2022-07-24T02:35:29;15.50;65.70
38183;DHT22;23991;52.430;10.586;2022-07-24T02:37:54;15.50;65.90
38183;DHT22;23991;52.430;10.586;2022-07-24T02:40:20;15.50;66.20
38183;DHT22;23991;52.430;10.586;2022-07-24T02:42:46;15.40;66.40
38183;DHT22;23991;52.430;10.586;2022-07-24T02:45:11;15.50;66.70
38183;DHT22;23991;52.430;10.586;2022-07-24T02:47:47;15.50;66.80
38183;DHT22;23991;52.430;10.586;2022-07-24T02:50:13;15.40;66.70
38183;DHT22;23991;52.430;10.586;2022-07-24T02:52:38;15.40;66.80
38183;DHT22;23991;52.430;10.586;2022-07-24T02:55:04;15.40;67.00
38183;DHT22;23991;52.430;10.586;2022-07-24T02:57:30;15.40;66.90
38183;DHT22;23991;52.430;10.586;2022-07-24T02:59:56;15.40;66.40
38183;DHT22;23991;52.430;10.586;2022-07-24T03:02:21;15.30;66.60
38183;DHT22;23991;52.430;10.586;2022-07-24T03:04:47;15.30;66.50
38183;DHT22;23991;52.430;10.586;2022-07-24T03:07:12;15.40;66.60
38183;DHT22;23991;52.430;10.586;2022-07-24T03:09:38;15.40;66.30
38183;DHT22;23991;52.430;10.586;2022-07-24T03:12:04;15.30;66.80
38183;DHT22;23991;52.430;10.586;2022-07-24T03:14:30;15.30;66.70
38183;DHT22;23991;52.430;10.586;2022-07-24T03:16:55;15.30;66.80
38183;DHT22;23991;52.430;10.586;2022-07-24T03:19:21;15.20;66.70
38183;DHT22;23991;52.430;10.586;2022-07-24T03:21:46;15.20;66.70
38183;DHT22;23991;52.430;10.586;2022-07-24T03:24:12;15.20;66.80
38183;DHT22;23991;52.430;10.586;2022-07-24T03:26:37;15.20;66.90
38183;DHT22;23991;52.430;10.586;2022-07-24T03:29:03;15.10;67.00
38183;DHT22;23991;52.430;10.586;2022-07-24T03:31:28;15.10;67.20
38183;DHT22;23991;52.430;10.586;2022-07-24T03:33:54;15.10;67.50
38183;DHT22;23991;52.430;10.586;2022-07-24T03:36:20;15.10;67.70
38183;DHT22;23991;52.430;10.586;2022-07-24T03:38:45;15.00;67.80
38183;DHT22;23991;52.430;10.586;2022-07-24T03:41:11;15.10;67.60
38183;DHT22;23991;52.430;10.586;2022-07-24T03:43:36;15.10;67.90
38183;DHT22;23991;52.430;10.586;2022-07-24T03:46:02;15.00;67.90
38183;DHT22;23991;52.430;10.586;2022-07-24T03:48:27;15.10;67.80
38183;DHT22;23991;52.430;10.586;2022-07-24T03:50:53;15.10;67.60
38183;DHT22;23991;52.430;10.586;2022-07-24T03:53:18;15.20;67.60
38183;DHT22;23991;52.430;10.586;2022-07-24T03:55:44;15.20;67.70
38183;DHT22;23991;52.430;10.586;2022-07-24T03:58:10;15.30;67.60
38183;DHT22;23991;52.430;10.586;2022-07-24T04:00:35;15.30;67.20
38183;DHT22;23991;52.430;10.586;2022-07-24T04:03:01;15.30;67.10
38183;DHT22;23991;52.430;10.586;2022-07-24T04:05:26;15.40;66.90
38183;DHT22;23991;52.430;10.586;2022-07-24T04:07:52;15.40;66.80
38183;DHT22;23991;52.430;10.586;2022-07-24T04:10:17;15.50;66.50
38183;DHT22;23991;52.430;10.586;2022-07-24T04:12:43;15.60;66.50
38183;DHT22;23991;52.430;10.586;2022-07-24T04:15:09;15.60;66.60
38183;DHT22;23991;52.430;10.586;2022-07-24T04:17:38;15.60;66.70
38183;DHT22;23991;52.430;10.586;2022-07-24T04:20:04;15.70;66.70
38183;DHT22;23991;52.430;10.586;2022-07-24T04:22:30;15.80;66.60
38183;DHT22;23991;52.430;10.586;2022-07-24T04:24:56;15.80;66.50
38183;DHT22;23991;52.430;10.586;2022-07-24T04:27:21;15.80;66.40
38183;DHT22;23991;52.430;10.586;2022-07-24T04:29:47;15.90;66.10
38183;DHT22;23991;52.430;10.586;2022-07-24T04:32:12;16.10;65.70
38183;DHT22;23991;52.430;10.586;2022-07-24T04:34:38;16.20;65.60
38183;DHT22;23991;52.430;10.586;2022-07-24T04:37:03;16.20;65.70
38183;DHT22;23991;52.430;10.586;2022-07-24T04:39:29;16.30;65.50
38183;DHT22;23991;52.430;10.586;2022-07-24T04:41:54;16.40;65.30
38183;DHT22;23991;52.430;10.586;2022-07-24T04:44:20;16.50;65.10
38183;DHT22;23991;52.430;10.586;2022-07-24T04:46:46;16.60;65.10
38183;DHT22;23991;52.430;10.586;2022-07-24T04:49:11;16.70;65.00
38183;DHT22;23991;52.430;10.586;2022-07-24T04:51:37;16.80;65.10
38183;DHT22;23991;52.430;10.586;2022-07-24T04:54:03;16.80;65.00
38183;DHT22;23991;52.430;10.586;2022-07-24T04:56:28;16.90;64.90
38183;DHT22;23991;52.430;10.586;2022-07-24T04:58:57;17.10;64.80
38183;DHT22;23991;52.430;10.586;2022-07-24T05:01:23;17.10;64.50
38183;DHT22;23991;52.430;10.586;2022-07-24T05:03:48;17.30;64.40
38183;DHT22;23991;52.430;10.586;2022-07-24T05:06:14;17.30;64.20
38183;DHT22;23991;52.430;10.586;2022-07-24T05:08:40;17.40;63.90
38183;DHT22;23991;52.430;10.586;2022-07-24T05:11:05;17.50;63.90
38183;DHT22;23991;52.430;10.586;2022-07-24T05:13:31;17.60;63.70
38183;DHT22;23991;52.430;10.586;2022-07-24T05:15:56;17.70;63.40
38183;DHT22;23991;52.430;10.586;2022-07-24T05:18:22;17.80;63.10
38183;DHT22;23991;52.430;10.586;2022-07-24T05:20:47;17.80;63.00
38183;DHT22;23991;52.430;10.586;2022-07-24T05:23:13;18.00;63.20
38183;DHT22;23991;52.430;10.586;2022-07-24T05:25:39;18.10;62.60
38183;DHT22;23991;52.430;10.586;2022-07-24T05:28:04;18.20;62.60
38183;DHT22;23991;52.430;10.586;2022-07-24T05:30:30;18.30;61.90
38183;DHT22;23991;52.430;10.586;2022-07-24T05:32:56;18.40;61.80
38183;DHT22;23991;52.430;10.586;2022-07-24T05:35:21;18.40;61.40
38183;DHT22;23991;52.430;10.586;2022-07-24T05:37:47;18.60;61.00
38183;DHT22;23991;52.430;10.586;2022-07-24T05:40:12;18.70;60.80
38183;DHT22;23991;52.430;10.586;2022-07-24T05:42:38;18.80;60.70
38183;DHT22;23991;52.430;10.586;2022-07-24T05:45:04;19.00;59.90
38183;DHT22;23991;52.430;10.586;2022-07-24T05:47:39;19.10;59.30
38183;DHT22;23991;52.430;10.586;2022-07-24T05:50:10;19.30;59.20
38183;DHT22;23991;52.430;10.586;2022-07-24T05:52:37;19.30;58.90
38183;DHT22;23991;52.430;10.586;2022-07-24T05:55:03;19.50;58.50
38183;DHT22;23991;52.430;10.586;2022-07-24T05:57:29;19.60;58.10
38183;DHT22;23991;52.430;10.586;2022-07-24T05:59:55;19.70;58.10
38183;DHT22;23991;52.430;10.586;2022-07-24T06:02:21;19.80;57.80
38183;DHT22;23991;52.430;10.586;2022-07-24T06:04:46;20.00;57.40
38183;DHT22;23991;52.430;10.586;2022-07-24T06:07:12;20.10;56.80
38183;DHT22;23991;52.430;10.586;2022-07-24T06:09:38;20.30;55.90
38183;DHT22;23991;52.430;10.586;2022-07-24T06:12:04;20.30;55.60
38183;DHT22;23991;52.430;10.586;2022-07-24T06:14:31;20.30;54.90
38183;DHT22;23991;52.430;10.586;2022-07-24T06:16:57;20.50;55.00
38183;DHT22;23991;52.430;10.586;2022-07-24T06:19:22;20.70;54.50
38183;DHT22;23991;52.430;10.586;2022-07-24T06:21:48;20.80;53.80
38183;DHT22;23991;52.430;10.586;2022-07-24T06:24:13;20.80;53.80
38183;DHT22;23991;52.430;10.586;2022-07-24T06:26:39;21.00;53.50
38183;DHT22;23991;52.430;10.586;2022-07-24T06:29:04;21.20;53.60
38183;DHT22;23991;52.430;10.586;2022-07-24T06:31:30;21.30;52.90
38183;DHT22;23991;52.430;10.586;2022-07-24T06:33:56;21.60;52.60
38183;DHT22;23991;52.430;10.586;2022-07-24T06:36:21;21.70;51.10
38183;DHT22;23991;52.430;10.586;2022-07-24T06:38:47;22.00;50.50
38183;DHT22;23991;52.430;10.586;2022-07-24T06:41:13;22.30;49.70
38183;DHT22;23991;52.430;10.586;2022-07-24T06:43:39;22.40;48.90
38183;DHT22;23991;52.430;10.586;2022-07-24T06:46:05;22.30;49.00
38183;DHT22;23991;52.430;10.586;2022-07-24T06:48:31;22.40;49.60
38183;DHT22;23991;52.430;10.586;2022-07-24T06:50:57;22.70;48.80
38183;DHT22;23991;52.430;10.586;2022-07-24T06:53:23;22.80;48.50
38183;DHT22;23991;52.430;10.586;2022-07-24T06:55:48;23.00;48.10
38183;DHT22;23991;52.430;10.586;2022-07-24T06:58:17;23.20;47.50
38183;DHT22;23991;52.430;10.586;2022-07-24T07:00:44;23.40;47.70
38183;DHT22;23991;52.430;10.586;2022-07-24T07:03:09;23.60;46.80
38183;DHT22;23991;52.430;10.586;2022-07-24T07:05:35;23.80;46.20
38183;DHT22;23991;52.430;10.586;2022-07-24T07:08:01;24.10;45.40
38183;DHT22;23991;52.430;10.586;2022-07-24T07:10:26;24.40;44.60
38183;DHT22;23991;52.430;10.586;2022-07-24T07:12:52;24.60;44.20
38183;DHT22;23991;52.430;10.586;2022-07-24T07:15:18;24.90;44.20
38183;DHT22;23991;52.430;10.586;2022-07-24T07:17:44;25.10;43.60
38183;DHT22;23991;52.430;10.586;2022-07-24T07:20:11;25.60;42.30
38183;DHT22;23991;52.430;10.586;2022-07-24T07:22:37;25.80;41.40
38183;DHT22;23991;52.430;10.586;2022-07-24T07:25:03;26.10;40.80
38183;DHT22;23991;52.430;10.586;2022-07-24T07:27:28;26.40;40.70
38183;DHT22;23991;52.430;10.586;2022-07-24T07:29:54;26.60;39.80
38183;DHT22;23991;52.430;10.586;2022-07-24T07:32:20;26.70;39.50
38183;DHT22;23991;52.430;10.586;2022-07-24T07:34:45;26.90;39.20
38183;DHT22;23991;52.430;10.586;2022-07-24T07:37:11;27.00;39.40
38183;DHT22;23991;52.430;10.586;2022-07-24T07:39:36;27.20;38.60
38183;DHT22;23991;52.430;10.586;2022-07-24T07:42:02;27.50;38.10
38183;DHT22;23991;52.430;10.586;2022-07-24T07:44:28;27.70;37.80
38183;DHT22;23991;52.430;10.586;2022-07-24T07:46:53;27.80;37.50
38183;DHT22;23991;52.430;10.586;2022-07-24T07:49:19;28.00;37.40
38183;DHT22;23991;52.430;10.586;2022-07-24T07:51:44;28.30;36.40
38183;DHT22;23991;52.430;10.586;2022-07-24T07:54:13;28.50;36.00
38183;DHT22;23991;52.430;10.586;2022-07-24T07:56:40;28.90;35.50
38183;DHT22;23991;52.430;10.586;2022-07-24T07:59:05;29.50;35.00
38183;DHT22;23991;52.430;10.586;2022-07-24T08:01:31;29.70;34.60
38183;DHT22;23991;52.430;10.586;2022-07-24T08:03:57;29.90;33.70
38183;DHT22;23991;52.430;10.586;2022-07-24T08:06:22;29.80;34.30
38183;DHT22;23991;52.430;10.586;2022-07-24T08:08:48;30.20;33.70
38183;DHT22;23991;52.430;10.586;2022-07-24T08:11:14;30.80;32.40
38183;DHT22;23991;52.430;10.586;2022-07-24T08:13:39;31.00;32.20
38183;DHT22;23991;52.430;10.586;2022-07-24T08:16:05;30.90;32.60
38183;DHT22;23991;52.430;10.586;2022-07-24T08:18:31;31.30;31.90
38183;DHT22;23991;52.430;10.586;2022-07-24T08:20:56;31.60;31.10
38183;DHT22;23991;52.430;10.586;2022-07-24T08:23:22;31.40;31.40
38183;DHT22;23991;52.430;10.586;2022-07-24T08:25:48;31.50;31.10
38183;DHT22;23991;52.430;10.586;2022-07-24T08:28:13;31.80;30.80
38183;DHT22;23991;52.430;10.586;2022-07-24T08:30:39;32.20;30.40
38183;DHT22;23991;52.430;10.586;2022-07-24T08:33:05;32.50;29.90
38183;DHT22;23991;52.430;10.586;2022-07-24T08:35:30;32.80;28.90
38183;DHT22;23991;52.430;10.586;2022-07-24T08:37:56;32.90;29.00
38183;DHT22;23991;52.430;10.586;2022-07-24T08:40:22;32.90;29.40
38183;DHT22;23991;52.430;10.586;2022-07-24T08:42:48;33.10;28.70
38183;DHT22;23991;52.430;10.586;2022-07-24T08:45:13;33.10;28.70
38183;DHT22;23991;52.430;10.586;2022-07-24T08:47:40;33.20;28.50
38183;DHT22;23991;52.430;10.586;2022-07-24T08:50:07;33.40;28.60
38183;DHT22;23991;52.430;10.586;2022-07-24T08:52:34;33.90;28.50
38183;DHT22;23991;52.430;10.586;2022-07-24T08:55:01;34.40;27.60
38183;DHT22;23991;52.430;10.586;2022-07-24T08:57:27;34.50;27.10
38183;DHT22;23991;52.430;10.586;2022-07-24T08:59:53;34.70;27.10
38183;DHT22;23991;52.430;10.586;2022-07-24T09:02:19;35.10;26.80
38183;DHT22;23991;52.430;10.586;2022-07-24T09:04:46;35.20;26.60
38183;DHT22;23991;52.430;10.586;2022-07-24T09:07:14;35.30;26.50
38183;DHT22;23991;52.430;10.586;2022-07-24T09:09:41;35.40;26.30
38183;DHT22;23991;52.430;10.586;2022-07-24T09:12:08;35.20;26.30
38183;DHT22;23991;52.430;10.586;2022-07-24T09:14:37;36.10;25.90
38183;DHT22;23991;52.430;10.586;2022-07-24T09:17:05;36.00;25.80
38183;DHT22;23991;52.430;10.586;2022-07-24T09:19:30;36.30;25.20
38183;DHT22;23991;52.430;10.586;2022-07-24T09:21:56;36.20;25.70
38183;DHT22;23991;52.430;10.586;2022-07-24T09:24:22;36.40;25.20
38183;DHT22;23991;52.430;10.586;2022-07-24T09:26:54;37.00;24.70
38183;DHT22;23991;52.430;10.586;2022-07-24T09:29:22;36.90;24.60
38183;DHT22;23991;52.430;10.586;2022-07-24T09:31:59;36.70;25.00
38183;DHT22;23991;52.430;10.586;2022-07-24T09:34:31;36.90;24.40
38183;DHT22;23991;52.430;10.586;2022-07-24T09:37:07;37.20;24.30
38183;DHT22;23991;52.430;10.586;2022-07-24T09:39:35;37.50;24.20
38183;DHT22;23991;52.430;10.586;2022-07-24T09:42:03;37.50;24.20
38183;DHT22;23991;52.430;10.586;2022-07-24T09:44:29;37.40;23.90
38183;DHT22;23991;52.430;10.586;2022-07-24T09:47:00;37.40;24.10
38183;DHT22;23991;52.430;10.586;2022-07-24T09:49:27;37.60;23.90
38183;DHT22;23991;52.430;10.586;2022-07-24T09:54:33;38.40;23.20
38183;DHT22;23991;52.430;10.586;2022-07-24T09:57:22;38.60;23.00
38183;DHT22;23991;52.430;10.586;2022-07-24T10:00:00;39.20;22.20
38183;DHT22;23991;52.430;10.586;2022-07-24T10:02:33;39.50;22.00
38183;DHT22;23991;52.430;10.586;2022-07-24T10:05:01;39.30;22.10
38183;DHT22;23991;52.430;10.586;2022-07-24T10:07:28;39.70;21.60
38183;DHT22;23991;52.430;10.586;2022-07-24T10:09:56;40.00;21.30
38183;DHT22;23991;52.430;10.586;2022-07-24T10:12:25;40.00;21.40
38183;DHT22;23991;52.430;10.586;2022-07-24T10:14:53;40.20;21.10
38183;DHT22;23991;52.430;10.586;2022-07-24T10:17:21;40.00;21.50
38183;DHT22;23991;52.430;10.586;2022-07-24T10:19:49;39.60;21.70
38183;DHT22;23991;52.430;10.586;2022-07-24T10:22:22;39.70;21.20
38183;DHT22;23991;52.430;10.586;2022-07-24T10:27:25;39.90;21.40
38183;DHT22;23991;52.430;10.586;2022-07-24T10:29:58;40.20;20.90
38183;DHT22;23991;52.430;10.586;2022-07-24T10:32:24;40.40;20.30
38183;DHT22;23991;52.430;10.586;2022-07-24T10:35:11;40.50;20.40
38183;DHT22;23991;52.430;10.586;2022-07-24T10:40:59;41.10;19.80
38183;DHT22;23991;52.430;10.586;2022-07-24T10:43:27;40.80;20.30
38183;DHT22;23991;52.430;10.586;2022-07-24T10:48:28;40.90;20.40
38183;DHT22;23991;52.430;10.586;2022-07-24T10:53:46;41.20;19.80
38183;DHT22;23991;52.430;10.586;2022-07-24T10:59:04;41.50;19.40
38183;DHT22;23991;52.430;10.586;2022-07-24T11:01:42;41.40;19.00
38183;DHT22;23991;52.430;10.586;2022-07-24T11:12:29;41.70;19.10
38183;DHT22;23991;52.430;10.586;2022-07-24T11:15:02;41.90;19.20
38183;DHT22;23991;52.430;10.586;2022-07-24T11:17:46;42.10;19.10
38183;DHT22;23991;52.430;10.586;2022-07-24T11:20:15;42.30;18.90
38183;DHT22;23991;52.430;10.586;2022-07-24T11:22:59;42.60;18.90
38183;DHT22;23991;52.430;10.586;2022-07-24T11:25:26;42.50;18.50
38183;DHT22;23991;52.430;10.586;2022-07-24T11:28:12;42.60;18.40
38183;DHT22;23991;52.430;10.586;2022-07-24T11:30:43;42.70;18.60
38183;DHT22;23991;52.430;10.586;2022-07-24T11:33:16;42.60;18.30
38183;DHT22;23991;52.430;10.586;2022-07-24T11:35:44;42.60;18.30
38183;DHT22;23991;52.430;10.586;2022-07-24T11:38:10;42.60;17.90
38183;DHT22;23991;52.430;10.586;2022-07-24T11:40:36;42.70;18.00
38183;DHT22;23991;52.430;10.586;2022-07-24T11:43:04;42.90;18.10
38183;DHT22;23991;52.430;10.586;2022-07-24T11:45:30;42.90;17.90
38183;DHT22;23991;52.430;10.586;2022-07-24T11:47:56;42.70;18.10
38183;DHT22;23991;52.430;10.586;2022-07-24T11:50:24;42.50;18.10
38183;DHT22;23991;52.430;10.586;2022-07-24T11:52:50;42.20;18.60
38183;DHT22;23991;52.430;10.586;2022-07-24T11:55:19;42.30;18.30
38183;DHT22;23991;52.430;10.586;2022-07-24T11:57:51;42.60;18.10
38183;DHT22;23991;52.430;10.586;2022-07-24T12:00:23;42.10;18.00
38183;DHT22;23991;52.430;10.586;2022-07-24T12:02:52;42.20;17.90
38183;DHT22;23991;52.430;10.586;2022-07-24T12:05:32;42.60;18.00
38183;DHT22;23991;52.430;10.586;2022-07-24T12:08:00;42.80;17.50
38183;DHT22;23991;52.430;10.586;2022-07-24T12:10:27;43.00;17.00
38183;DHT22;23991;52.430;10.586;2022-07-24T12:12:53;43.10;17.20
38183;DHT22;23991;52.430;10.586;2022-07-24T12:15:21;43.30;17.10
38183;DHT22;23991;52.430;10.586;2022-07-24T12:17:58;43.10;17.10
38183;DHT22;23991;52.430;10.586;2022-07-24T12:20:33;43.10;17.10
38183;DHT22;23991;52.430;10.586;2022-07-24T12:23:00;43.10;17.00
38183;DHT22;23991;52.430;10.586;2022-07-24T12:25:27;42.90;17.30
38183;DHT22;23991;52.430;10.586;2022-07-24T12:30:43;43.10;16.90
38183;DHT22;23991;52.430;10.586;2022-07-24T12:33:22;43.20;17.30
38183;DHT22;23991;52.430;10.586;2022-07-24T12:38:35;43.20;16.60
38183;DHT22;23991;52.430;10.586;2022-07-24T12:41:03;43.10;17.00
38183;DHT22;23991;52.430;10.586;2022-07-24T12:43:29;43.00;16.80
38183;DHT22;23991;52.430;10.586;2022-07-24T12:46:09;43.20;17.10
38183;DHT22;23991;52.430;10.586;2022-07-24T12:48:35;43.40;16.50
38183;DHT22;23991;52.430;10.586;2022-07-24T12:51:10;43.30;16.70
38183;DHT22;23991;52.430;10.586;2022-07-24T12:53:38;43.50;16.60
38183;DHT22;23991;52.430;10.586;2022-07-24T12:56:06;43.30;16.50
38183;DHT22;23991;52.430;10.586;2022-07-24T13:01:23;43.80;16.70
38183;DHT22;23991;52.430;10.586;2022-07-24T13:04:00;43.60;16.60
38183;DHT22;23991;52.430;10.586;2022-07-24T13:06:53;43.60;16.70
38183;DHT22;23991;52.430;10.586;2022-07-24T13:09:20;43.80;16.50
38183;DHT22;23991;52.430;10.586;2022-07-24T13:11:48;44.00;16.20
38183;DHT22;23991;52.430;10.586;2022-07-24T13:14:15;44.10;16.50
38183;DHT22;23991;52.430;10.586;2022-07-24T13:16:43;44.10;16.00
38183;DHT22;23991;52.430;10.586;2022-07-24T13:19:09;44.00;16.40
38183;DHT22;23991;52.430;10.586;2022-07-24T13:21:35;44.00;16.20
38183;DHT22;23991;52.430;10.586;2022-07-24T13:24:03;43.90;16.30
38183;DHT22;23991;52.430;10.586;2022-07-24T13:26:28;43.70;16.40
38183;DHT22;23991;52.430;10.586;2022-07-24T13:28:54;43.60;16.30
38183;DHT22;23991;52.430;10.586;2022-07-24T13:31:20;43.90;16.60
38183;DHT22;23991;52.430;10.586;2022-07-24T13:33:49;43.80;16.40
38183;DHT22;23991;52.430;10.586;2022-07-24T13:36:16;43.60;16.70
38183;DHT22;23991;52.430;10.586;2022-07-24T13:38:42;43.60;16.30
38183;DHT22;23991;52.430;10.586;2022-07-24T13:41:08;44.00;16.10
38183;DHT22;23991;52.430;10.586;2022-07-24T13:43:33;43.60;16.10
38183;DHT22;23991;52.430;10.586;2022-07-24T13:45:59;43.30;16.00
38183;DHT22;23991;52.430;10.586;2022-07-24T13:48:25;43.20;16.40
38183;DHT22;23991;52.430;10.586;2022-07-24T13:50:50;43.60;16.20
38183;DHT22;23991;52.430;10.586;2022-07-24T13:53:16;43.60;16.40
38183;DHT22;23991;52.430;10.586;2022-07-24T13:55:42;43.60;16.10
38183;DHT22;23991;52.430;10.586;2022-07-24T13:58:07;43.70;16.10
38183;DHT22;23991;52.430;10.586;2022-07-24T14:00:33;43.60;16.20
38183;DHT22;23991;52.430;10.586;2022-07-24T14:02:59;43.60;15.90
38183;DHT22;23991;52.430;10.586;2022-07-24T14:05:25;43.30;16.00
38183;DHT22;23991;52.430;10.586;2022-07-24T14:07:52;43.10;16.70
38183;DHT22;23991;52.430;10.586;2022-07-24T14:10:19;43.10;16.50
38183;DHT22;23991;52.430;10.586;2022-07-24T14:12:44;43.10;16.60
38183;DHT22;23991;52.430;10.586;2022-07-24T14:15:10;43.10;16.30
38183;DHT22;23991;52.430;10.586;2022-07-24T14:17:38;43.10;16.50
38183;DHT22;23991;52.430;10.586;2022-07-24T14:20:04;43.00;16.40
38183;DHT22;23991;52.430;10.586;2022-07-24T14:22:30;43.00;16.70
38183;DHT22;23991;52.430;10.586;2022-07-24T14:24:56;43.20;16.20
38183;DHT22;23991;52.430;10.586;2022-07-24T14:27:21;43.10;16.40
38183;DHT22;23991;52.430;10.586;2022-07-24T14:29:47;43.10;16.60
38183;DHT22;23991;52.430;10.586;2022-07-24T14:32:12;42.90;16.20
38183;DHT22;23991;52.430;10.586;2022-07-24T14:34:38;42.80;16.40
38183;DHT22;23991;52.430;10.586;2022-07-24T14:37:04;42.80;16.30
38183;DHT22;23991;52.430;10.586;2022-07-24T14:39:29;42.90;16.20
38183;DHT22;23991;52.430;10.586;2022-07-24T14:41:56;42.80;16.50
38183;DHT22;23991;52.430;10.586;2022-07-24T14:44:22;42.60;16.90
38183;DHT22;23991;52.430;10.586;2022-07-24T14:46:48;42.60;16.50
38183;DHT22;23991;52.430;10.586;2022-07-24T14:49:13;42.60;16.50
38183;DHT22;23991;52.430;10.586;2022-07-24T14:51:39;42.70;16.50
38183;DHT22;23991;52.430;10.586;2022-07-24T14:54:04;42.90;16.30
38183;DHT22;23991;52.430;10.586;2022-07-24T14:56:31;43.00;16.30
38183;DHT22;23991;52.430;10.586;2022-07-24T14:58:56;42.90;16.30
38183;DHT22;23991;52.430;10.586;2022-07-24T15:01:22;42.50;16.80
38183;DHT22;23991;52.430;10.586;2022-07-24T15:03:47;42.60;16.40
38183;DHT22;23991;52.430;10.586;2022-07-24T15:06:13;42.50;16.60
38183;DHT22;23991;52.430;10.586;2022-07-24T15:08:40;42.40;16.70
38183;DHT22;23991;52.430;10.586;2022-07-24T15:11:06;42.20;16.90
38183;DHT22;23991;52.430;10.586;2022-07-24T15:13:32;42.20;17.00
38183;DHT22;23991;52.430;10.586;2022-07-24T15:15:57;42.20;16.90
38183;DHT22;23991;52.430;10.586;2022-07-24T15:18:23;42.10;17.20
38183;DHT22;23991;52.430;10.586;2022-07-24T15:20:49;42.10;17.20
38183;DHT22;23991;52.430;10.586;2022-07-24T15:23:15;42.10;17.30
38183;DHT22;23991;52.430;10.586;2022-07-24T15:25:40;42.00;17.50
38183;DHT22;23991;52.430;10.586;2022-07-24T15:28:06;41.60;17.60
38183;DHT22;23991;52.430;10.586;2022-07-24T15:30:31;41.50;17.80
38183;DHT22;23991;52.430;10.586;2022-07-24T15:32:57;41.60;18.00
38183;DHT22;23991;52.430;10.586;2022-07-24T15:35:23;41.10;18.20
38183;DHT22;23991;52.430;10.586;2022-07-24T15:37:48;40.90;18.40
38183;DHT22;23991;52.430;10.586;2022-07-24T15:40:14;40.60;18.60
38183;DHT22;23991;52.430;10.586;2022-07-24T15:42:40;41.00;18.50
38183;DHT22;23991;52.430;10.586;2022-07-24T15:45:06;41.00;18.20
38183;DHT22;23991;52.430;10.586;2022-07-24T15:47:31;40.90;18.60